sensor_id;sensor_type;location;lat;lon;timestamp;P1;durP1;ratioP1;P2;durP2;ratioP2
47335;SDS011;33068;51.990;5.926;2022-11-23T00:01:11;16.77;;;8.27;;
47335;SDS011;33068;51.990;5.926;2022-11-23T00:03:39;17.58;;;8.93;;
47335;SDS011;33068;51.990;5.926;2022-11-23T00:06:08;12.40;;;8.43;;
47335;SDS011;33068;51.990;5.926;2022-11-23T00:08:35;13.23;;;8.18;;
47335;SDS011;33068;51.990;5.926;2022-11-23T00:11:02;17.15;;;9.50;;
47335;SDS011;33068;51.990;5.926;2022-11-23T00:13:30;16.42;;;9.85;;
47335;SDS011;33068;51.990;5.926;2022-11-23T00:15:59;17.42;;;9.80;;
47335;SDS011;33068;51.990;5.926;2022-11-23T00:18:28;15.20;;;9.32;;
47335;SDS011;33068;51.990;5.926;2022-11-23T00:21:26;14.93;;;8.98;;
47335;SDS011;33068;51.990;5.926;2022-11-23T00:24:03;16.35;;;9.73;;
47335;SDS011;33068;51.990;5.926;2022-11-23T00:26:36;16.63;;;10.45;;
47335;SDS011;33068;51.990;5.926;2022-11-23T00:29:09;19.92;;;9.07;;
47335;SDS011;33068;51.990;5.926;2022-11-23T00:31:38;19.13;;;10.02;;
47335;SDS011;33068;51.990;5.926;2022-11-23T00:34:06;20.80;;;10.73;;
47335;SDS011;33068;51.990;5.926;2022-11-23T00:36:34;19.15;;;10.27;;
47335;SDS011;33068;51.990;5.926;2022-11-23T00:39:01;15.85;;;9.60;;
47335;SDS011;33068;51.990;5.926;2022-11-23T00:41:29;19.63;;;10.63;;
47335;SDS011;33068;51.990;5.926;2022-11-23T00:43:56;17.48;;;11.07;;
47335;SDS011;33068;51.990;5.926;2022-11-23T00:46:43;18.30;;;11.07;;
47335;SDS011;33068;51.990;5.926;2022-11-23T00:49:10;14.68;;;10.02;;
47335;SDS011;33068;51.990;5.926;2022-11-23T00:51:39;27.70;;;10.63;;
47335;SDS011;33068;51.990;5.926;2022-11-23T00:54:11;23.65;;;9.70;;
47335;SDS011;33068;51.990;5.926;2022-11-23T00:56:38;21.35;;;10.38;;
47335;SDS011;33068;51.990;5.926;2022-11-23T00:59:05;21.00;;;10.23;;
47335;SDS011;33068;51.990;5.926;2022-11-23T01:01:33;27.55;;;10.55;;
47335;SDS011;33068;51.990;5.926;2022-11-23T01:04:03;17.50;;;8.98;;
47335;SDS011;33068;51.990;5.926;2022-11-23T01:06:31;18.75;;;9.45;;
47335;SDS011;33068;51.990;5.926;2022-11-23T01:09:13;21.50;;;10.25;;
47335;SDS011;33068;51.990;5.926;2022-11-23T01:11:48;28.08;;;10.38;;
47335;SDS011;33068;51.990;5.926;2022-11-23T01:14:15;18.75;;;9.68;;
47335;SDS011;33068;51.990;5.926;2022-11-23T01:16:42;16.77;;;9.63;;
47335;SDS011;33068;51.990;5.926;2022-11-23T01:19:13;19.63;;;9.38;;
47335;SDS011;33068;51.990;5.926;2022-11-23T01:21:41;22.90;;;9.52;;
47335;SDS011;33068;51.990;5.926;2022-11-23T01:24:12;18.88;;;8.43;;
47335;SDS011;33068;51.990;5.926;2022-11-23T01:26:41;17.98;;;8.90;;
47335;SDS011;33068;51.990;5.926;2022-11-23T01:29:09;16.17;;;8.90;;
47335;SDS011;33068;51.990;5.926;2022-11-23T01:31:37;27.50;;;8.82;;
47335;SDS011;33068;51.990;5.926;2022-11-23T01:34:04;18.42;;;8.15;;
47335;SDS011;33068;51.990;5.926;2022-11-23T01:36:32;24.77;;;8.43;;
47335;SDS011;33068;51.990;5.926;2022-11-23T01:39:00;15.35;;;8.05;;
47335;SDS011;33068;51.990;5.926;2022-11-23T01:41:30;15.63;;;7.50;;
47335;SDS011;33068;51.990;5.926;2022-11-23T01:46:54;21.00;;;7.43;;
47335;SDS011;33068;51.990;5.926;2022-11-23T01:49:22;15.45;;;6.70;;
47335;SDS011;33068;51.990;5.926;2022-11-23T01:51:51;13.90;;;6.90;;
47335;SDS011;33068;51.990;5.926;2022-11-23T01:54:21;17.50;;;6.60;;
47335;SDS011;33068;51.990;5.926;2022-11-23T01:56:56;12.23;;;6.07;;
47335;SDS011;33068;51.990;5.926;2022-11-23T01:59:30;17.75;;;5.70;;
47335;SDS011;33068;51.990;5.926;2022-11-23T02:02:00;15.57;;;6.55;;
47335;SDS011;33068;51.990;5.926;2022-11-23T02:04:30;13.50;;;5.85;;
47335;SDS011;33068;51.990;5.926;2022-11-23T02:07:00;17.48;;;5.72;;
47335;SDS011;33068;51.990;5.926;2022-11-23T02:09:28;12.77;;;4.90;;
47335;SDS011;33068;51.990;5.926;2022-11-23T02:11:58;16.42;;;5.28;;
47335;SDS011;33068;51.990;5.926;2022-11-23T02:14:26;17.35;;;6.47;;
47335;SDS011;33068;51.990;5.926;2022-11-23T02:16:54;19.00;;;4.93;;
47335;SDS011;33068;51.990;5.926;2022-11-23T02:19:25;15.63;;;4.63;;
47335;SDS011;33068;51.990;5.926;2022-11-23T02:22:03;8.23;;;4.43;;
47335;SDS011;33068;51.990;5.926;2022-11-23T02:24:34;16.35;;;5.57;;
47335;SDS011;33068;51.990;5.926;2022-11-23T02:27:10;11.07;;;4.18;;
47335;SDS011;33068;51.990;5.926;2022-11-23T02:29:37;14.77;;;5.18;;
47335;SDS011;33068;51.990;5.926;2022-11-23T02:32:04;14.65;;;4.57;;
47335;SDS011;33068;51.990;5.926;2022-11-23T02:34:31;13.52;;;3.90;;
47335;SDS011;33068;51.990;5.926;2022-11-23T02:36:58;15.27;;;4.90;;
47335;SDS011;33068;51.990;5.926;2022-11-23T02:39:29;11.88;;;5.03;;
47335;SDS011;33068;51.990;5.926;2022-11-23T02:41:58;15.77;;;4.30;;
47335;SDS011;33068;51.990;5.926;2022-11-23T02:44:31;14.77;;;4.57;;
47335;SDS011;33068;51.990;5.926;2022-11-23T02:47:04;17.52;;;4.10;;
47335;SDS011;33068;51.990;5.926;2022-11-23T02:49:32;14.55;;;4.25;;
47335;SDS011;33068;51.990;5.926;2022-11-23T02:52:00;12.63;;;3.78;;
47335;SDS011;33068;51.990;5.926;2022-11-23T02:54:28;16.52;;;4.28;;
47335;SDS011;33068;51.990;5.926;2022-11-23T02:56:58;14.25;;;3.58;;
47335;SDS011;33068;51.990;5.926;2022-11-23T02:59:26;14.43;;;4.40;;
47335;SDS011;33068;51.990;5.926;2022-11-23T03:01:55;12.40;;;3.13;;
47335;SDS011;33068;51.990;5.926;2022-11-23T03:04:22;9.35;;;3.33;;
47335;SDS011;33068;51.990;5.926;2022-11-23T03:06:50;9.73;;;3.78;;
47335;SDS011;33068;51.990;5.926;2022-11-23T03:09:17;16.67;;;3.92;;
47335;SDS011;33068;51.990;5.926;2022-11-23T03:11:44;12.30;;;3.63;;
47335;SDS011;33068;51.990;5.926;2022-11-23T03:14:12;7.63;;;3.10;;
47335;SDS011;33068;51.990;5.926;2022-11-23T03:16:46;9.30;;;3.22;;
47335;SDS011;33068;51.990;5.926;2022-11-23T03:19:17;8.98;;;2.83;;
47335;SDS011;33068;51.990;5.926;2022-11-23T03:21:46;6.78;;;2.72;;
47335;SDS011;33068;51.990;5.926;2022-11-23T03:24:14;11.00;;;2.42;;
47335;SDS011;33068;51.990;5.926;2022-11-23T03:26:42;12.82;;;3.05;;
47335;SDS011;33068;51.990;5.926;2022-11-23T03:29:16;10.52;;;3.28;;
47335;SDS011;33068;51.990;5.926;2022-11-23T03:31:43;7.80;;;2.10;;
47335;SDS011;33068;51.990;5.926;2022-11-23T03:34:13;12.27;;;2.88;;
47335;SDS011;33068;51.990;5.926;2022-11-23T03:36:43;8.55;;;2.05;;
47335;SDS011;33068;51.990;5.926;2022-11-23T03:39:13;11.00;;;2.47;;
47335;SDS011;33068;51.990;5.926;2022-11-23T03:42:12;8.57;;;2.75;;
47335;SDS011;33068;51.990;5.926;2022-11-23T03:44:39;9.77;;;2.05;;
47335;SDS011;33068;51.990;5.926;2022-11-23T03:47:06;13.65;;;2.20;;
47335;SDS011;33068;51.990;5.926;2022-11-23T03:49:34;9.60;;;2.28;;
47335;SDS011;33068;51.990;5.926;2022-11-23T03:52:03;9.35;;;2.50;;
47335;SDS011;33068;51.990;5.926;2022-11-23T03:54:31;11.05;;;2.90;;
47335;SDS011;33068;51.990;5.926;2022-11-23T03:56:58;15.05;;;2.53;;
47335;SDS011;33068;51.990;5.926;2022-11-23T03:59:26;17.67;;;2.70;;
47335;SDS011;33068;51.990;5.926;2022-11-23T04:01:53;12.40;;;2.38;;
47335;SDS011;33068;51.990;5.926;2022-11-23T04:04:25;7.68;;;2.33;;
47335;SDS011;33068;51.990;5.926;2022-11-23T04:07:06;14.70;;;2.85;;
47335;SDS011;33068;51.990;5.926;2022-11-23T04:09:39;15.43;;;2.65;;
47335;SDS011;33068;51.990;5.926;2022-11-23T04:12:26;14.02;;;2.10;;
47335;SDS011;33068;51.990;5.926;2022-11-23T04:14:54;15.85;;;3.00;;
47335;SDS011;33068;51.990;5.926;2022-11-23T04:17:22;12.00;;;2.17;;
47335;SDS011;33068;51.990;5.926;2022-11-23T04:19:49;8.70;;;2.03;;
47335;SDS011;33068;51.990;5.926;2022-11-23T04:22:18;9.98;;;2.88;;
47335;SDS011;33068;51.990;5.926;2022-11-23T04:24:45;13.80;;;2.47;;
47335;SDS011;33068;51.990;5.926;2022-11-23T04:27:13;9.90;;;3.38;;
47335;SDS011;33068;51.990;5.926;2022-11-23T04:29:41;11.45;;;2.60;;
47335;SDS011;33068;51.990;5.926;2022-11-23T04:32:08;13.35;;;3.05;;
47335;SDS011;33068;51.990;5.926;2022-11-23T04:34:37;9.38;;;2.42;;
47335;SDS011;33068;51.990;5.926;2022-11-23T04:37:06;11.13;;;2.17;;
47335;SDS011;33068;51.990;5.926;2022-11-23T04:39:38;8.73;;;3.15;;
47335;SDS011;33068;51.990;5.926;2022-11-23T04:42:23;10.07;;;2.85;;
47335;SDS011;33068;51.990;5.926;2022-11-23T04:44:54;7.03;;;2.28;;
47335;SDS011;33068;51.990;5.926;2022-11-23T04:47:22;10.52;;;2.50;;
47335;SDS011;33068;51.990;5.926;2022-11-23T04:49:50;17.55;;;2.95;;
47335;SDS011;33068;51.990;5.926;2022-11-23T04:52:18;13.55;;;2.28;;
47335;SDS011;33068;51.990;5.926;2022-11-23T04:54:51;11.13;;;2.70;;
47335;SDS011;33068;51.990;5.926;2022-11-23T04:57:18;12.05;;;2.50;;
47335;SDS011;33068;51.990;5.926;2022-11-23T04:59:48;11.23;;;2.42;;
47335;SDS011;33068;51.990;5.926;2022-11-23T05:02:16;9.68;;;2.58;;
47335;SDS011;33068;51.990;5.926;2022-11-23T05:05:09;10.88;;;2.05;;
47335;SDS011;33068;51.990;5.926;2022-11-23T05:07:36;16.40;;;2.75;;
47335;SDS011;33068;51.990;5.926;2022-11-23T05:10:05;9.07;;;1.58;;
47335;SDS011;33068;51.990;5.926;2022-11-23T05:12:34;9.07;;;1.92;;
47335;SDS011;33068;51.990;5.926;2022-11-23T05:15:01;14.20;;;2.13;;
47335;SDS011;33068;51.990;5.926;2022-11-23T05:17:34;9.98;;;1.73;;
47335;SDS011;33068;51.990;5.926;2022-11-23T05:20:04;9.48;;;1.50;;
47335;SDS011;33068;51.990;5.926;2022-11-23T05:22:34;5.30;;;1.67;;
47335;SDS011;33068;51.990;5.926;2022-11-23T05:25:06;10.00;;;1.70;;
47335;SDS011;33068;51.990;5.926;2022-11-23T05:27:35;15.55;;;2.15;;
47335;SDS011;33068;51.990;5.926;2022-11-23T05:30:03;8.75;;;2.25;;
47335;SDS011;33068;51.990;5.926;2022-11-23T05:32:31;9.63;;;1.70;;
47335;SDS011;33068;51.990;5.926;2022-11-23T05:34:59;13.60;;;1.60;;
47335;SDS011;33068;51.990;5.926;2022-11-23T05:37:30;9.43;;;1.95;;
47335;SDS011;33068;51.990;5.926;2022-11-23T05:40:00;8.38;;;1.35;;
47335;SDS011;33068;51.990;5.926;2022-11-23T05:42:30;10.55;;;1.27;;
47335;SDS011;33068;51.990;5.926;2022-11-23T05:47:38;5.13;;;0.95;;
47335;SDS011;33068;51.990;5.926;2022-11-23T05:50:16;4.00;;;1.33;;
47335;SDS011;33068;51.990;5.926;2022-11-23T05:52:44;7.43;;;1.30;;
47335;SDS011;33068;51.990;5.926;2022-11-23T05:55:12;5.65;;;1.55;;
47335;SDS011;33068;51.990;5.926;2022-11-23T05:57:41;16.75;;;1.95;;
47335;SDS011;33068;51.990;5.926;2022-11-23T06:00:08;11.48;;;1.42;;
47335;SDS011;33068;51.990;5.926;2022-11-23T06:02:52;12.05;;;2.00;;
47335;SDS011;33068;51.990;5.926;2022-11-23T06:05:25;13.40;;;2.00;;
47335;SDS011;33068;51.990;5.926;2022-11-23T06:07:52;13.27;;;2.72;;
47335;SDS011;33068;51.990;5.926;2022-11-23T06:10:24;11.50;;;1.92;;
47335;SDS011;33068;51.990;5.926;2022-11-23T06:12:53;9.18;;;1.63;;
47335;SDS011;33068;51.990;5.926;2022-11-23T06:15:21;9.15;;;1.45;;
47335;SDS011;33068;51.990;5.926;2022-11-23T06:17:49;9.77;;;1.80;;
47335;SDS011;33068;51.990;5.926;2022-11-23T06:20:19;20.58;;;2.60;;
47335;SDS011;33068;51.990;5.926;2022-11-23T06:23:00;9.63;;;2.05;;
47335;SDS011;33068;51.990;5.926;2022-11-23T06:25:30;9.45;;;1.92;;
47335;SDS011;33068;51.990;5.926;2022-11-23T06:28:18;12.05;;;2.28;;
47335;SDS011;33068;51.990;5.926;2022-11-23T06:30:50;8.63;;;1.80;;
47335;SDS011;33068;51.990;5.926;2022-11-23T06:33:17;9.98;;;2.22;;
47335;SDS011;33068;51.990;5.926;2022-11-23T06:35:51;9.10;;;1.85;;
47335;SDS011;33068;51.990;5.926;2022-11-23T06:38:19;10.77;;;2.05;;
47335;SDS011;33068;51.990;5.926;2022-11-23T06:40:55;18.83;;;2.53;;
47335;SDS011;33068;51.990;5.926;2022-11-23T06:43:26;11.35;;;2.55;;
47335;SDS011;33068;51.990;5.926;2022-11-23T06:45:58;15.15;;;2.70;;
47335;SDS011;33068;51.990;5.926;2022-11-23T06:48:28;14.02;;;1.98;;
47335;SDS011;33068;51.990;5.926;2022-11-23T06:50:57;13.70;;;2.17;;
47335;SDS011;33068;51.990;5.926;2022-11-23T06:53:24;8.85;;;1.45;;
47335;SDS011;33068;51.990;5.926;2022-11-23T06:55:57;14.07;;;1.83;;
47335;SDS011;33068;51.990;5.926;2022-11-23T06:58:27;17.52;;;2.08;;
47335;SDS011;33068;51.990;5.926;2022-11-23T07:00:58;10.75;;;1.98;;
47335;SDS011;33068;51.990;5.926;2022-11-23T07:03:27;14.10;;;2.22;;
47335;SDS011;33068;51.990;5.926;2022-11-23T07:06:03;11.13;;;1.73;;
47335;SDS011;33068;51.990;5.926;2022-11-23T07:08:32;19.17;;;2.38;;
47335;SDS011;33068;51.990;5.926;2022-11-23T07:11:09;13.80;;;1.65;;
47335;SDS011;33068;51.990;5.926;2022-11-23T07:13:38;10.68;;;1.25;;
47335;SDS011;33068;51.990;5.926;2022-11-23T07:16:06;15.18;;;1.80;;
47335;SDS011;33068;51.990;5.926;2022-11-23T07:18:35;15.00;;;1.60;;
47335;SDS011;33068;51.990;5.926;2022-11-23T07:21:02;11.85;;;1.70;;
47335;SDS011;33068;51.990;5.926;2022-11-23T07:23:29;17.02;;;2.00;;
47335;SDS011;33068;51.990;5.926;2022-11-23T07:25:56;12.77;;;1.65;;
47335;SDS011;33068;51.990;5.926;2022-11-23T07:28:23;11.23;;;1.60;;
47335;SDS011;33068;51.990;5.926;2022-11-23T07:30:51;8.45;;;2.20;;
47335;SDS011;33068;51.990;5.926;2022-11-23T07:33:20;15.10;;;1.67;;
47335;SDS011;33068;51.990;5.926;2022-11-23T07:35:47;9.45;;;1.92;;
47335;SDS011;33068;51.990;5.926;2022-11-23T07:38:15;11.05;;;1.70;;
47335;SDS011;33068;51.990;5.926;2022-11-23T07:40:42;19.45;;;2.22;;
47335;SDS011;33068;51.990;5.926;2022-11-23T07:43:22;11.43;;;1.75;;
47335;SDS011;33068;51.990;5.926;2022-11-23T07:45:49;18.38;;;1.80;;
47335;SDS011;33068;51.990;5.926;2022-11-23T07:48:20;12.13;;;1.70;;
47335;SDS011;33068;51.990;5.926;2022-11-23T07:50:47;12.07;;;1.58;;
47335;SDS011;33068;51.990;5.926;2022-11-23T07:53:16;11.85;;;1.55;;
47335;SDS011;33068;51.990;5.926;2022-11-23T07:55:43;11.93;;;1.58;;
47335;SDS011;33068;51.990;5.926;2022-11-23T07:58:11;10.70;;;1.73;;
47335;SDS011;33068;51.990;5.926;2022-11-23T08:00:38;11.98;;;1.67;;
47335;SDS011;33068;51.990;5.926;2022-11-23T08:03:09;8.50;;;1.58;;
47335;SDS011;33068;51.990;5.926;2022-11-23T08:05:38;12.68;;;1.75;;
47335;SDS011;33068;51.990;5.926;2022-11-23T08:08:05;12.23;;;1.80;;
47335;SDS011;33068;51.990;5.926;2022-11-23T08:10:32;21.42;;;2.08;;
47335;SDS011;33068;51.990;5.926;2022-11-23T08:13:00;10.93;;;1.35;;
47335;SDS011;33068;51.990;5.926;2022-11-23T08:15:30;12.90;;;1.58;;
47335;SDS011;33068;51.990;5.926;2022-11-23T08:17:57;11.45;;;1.48;;
47335;SDS011;33068;51.990;5.926;2022-11-23T08:20:27;11.73;;;1.35;;
47335;SDS011;33068;51.990;5.926;2022-11-23T08:22:55;10.95;;;1.52;;
47335;SDS011;33068;51.990;5.926;2022-11-23T08:25:22;14.85;;;2.17;;
47335;SDS011;33068;51.990;5.926;2022-11-23T08:27:53;15.68;;;2.00;;
47335;SDS011;33068;51.990;5.926;2022-11-23T08:30:21;8.80;;;1.35;;
47335;SDS011;33068;51.990;5.926;2022-11-23T08:32:48;13.73;;;1.67;;
47335;SDS011;33068;51.990;5.926;2022-11-23T08:35:15;18.50;;;1.98;;
47335;SDS011;33068;51.990;5.926;2022-11-23T08:37:43;12.85;;;1.60;;
47335;SDS011;33068;51.990;5.926;2022-11-23T08:40:11;7.70;;;1.15;;
47335;SDS011;33068;51.990;5.926;2022-11-23T08:42:38;14.73;;;2.03;;
47335;SDS011;33068;51.990;5.926;2022-11-23T08:45:06;11.05;;;1.92;;
47335;SDS011;33068;51.990;5.926;2022-11-23T08:47:34;22.13;;;2.00;;
47335;SDS011;33068;51.990;5.926;2022-11-23T08:50:01;10.48;;;1.42;;
47335;SDS011;33068;51.990;5.926;2022-11-23T08:52:28;9.90;;;1.65;;
47335;SDS011;33068;51.990;5.926;2022-11-23T08:54:57;9.75;;;1.35;;
47335;SDS011;33068;51.990;5.926;2022-11-23T08:57:25;9.55;;;1.30;;
47335;SDS011;33068;51.990;5.926;2022-11-23T08:59:52;9.82;;;1.20;;
47335;SDS011;33068;51.990;5.926;2022-11-23T09:02:19;8.25;;;1.23;;
47335;SDS011;33068;51.990;5.926;2022-11-23T09:04:46;12.15;;;1.55;;
47335;SDS011;33068;51.990;5.926;2022-11-23T09:07:14;8.25;;;1.23;;
47335;SDS011;33068;51.990;5.926;2022-11-23T09:09:41;15.88;;;1.58;;
47335;SDS011;33068;51.990;5.926;2022-11-23T09:12:09;10.40;;;1.50;;
47335;SDS011;33068;51.990;5.926;2022-11-23T09:14:36;12.05;;;1.40;;
47335;SDS011;33068;51.990;5.926;2022-11-23T09:17:04;10.23;;;1.40;;
47335;SDS011;33068;51.990;5.926;2022-11-23T09:19:31;9.40;;;1.83;;
47335;SDS011;33068;51.990;5.926;2022-11-23T09:21:58;13.35;;;1.83;;
47335;SDS011;33068;51.990;5.926;2022-11-23T09:24:25;13.70;;;2.20;;
47335;SDS011;33068;51.990;5.926;2022-11-23T09:26:52;5.22;;;1.05;;
47335;SDS011;33068;51.990;5.926;2022-11-23T09:29:20;9.25;;;1.95;;
47335;SDS011;33068;51.990;5.926;2022-11-23T09:31:49;14.48;;;1.83;;
47335;SDS011;33068;51.990;5.926;2022-11-23T09:34:17;16.17;;;1.80;;
47335;SDS011;33068;51.990;5.926;2022-11-23T09:36:44;17.58;;;2.03;;
47335;SDS011;33068;51.990;5.926;2022-11-23T09:39:11;13.93;;;1.95;;
47335;SDS011;33068;51.990;5.926;2022-11-23T09:41:51;9.82;;;1.73;;
47335;SDS011;33068;51.990;5.926;2022-11-23T09:44:31;15.13;;;1.77;;
47335;SDS011;33068;51.990;5.926;2022-11-23T09:47:12;9.95;;;1.40;;
47335;SDS011;33068;51.990;5.926;2022-11-23T09:49:53;10.38;;;1.30;;
47335;SDS011;33068;51.990;5.926;2022-11-23T09:52:28;15.38;;;1.80;;
47335;SDS011;33068;51.990;5.926;2022-11-23T09:54:57;7.97;;;1.05;;
47335;SDS011;33068;51.990;5.926;2022-11-23T09:57:27;9.23;;;1.00;;
47335;SDS011;33068;51.990;5.926;2022-11-23T10:00:02;9.63;;;1.75;;
47335;SDS011;33068;51.990;5.926;2022-11-23T10:02:32;10.40;;;1.10;;
47335;SDS011;33068;51.990;5.926;2022-11-23T10:05:04;12.50;;;1.20;;
47335;SDS011;33068;51.990;5.926;2022-11-23T10:07:38;8.27;;;1.27;;
47335;SDS011;33068;51.990;5.926;2022-11-23T10:10:17;7.68;;;1.30;;
47335;SDS011;33068;51.990;5.926;2022-11-23T10:12:58;5.68;;;1.05;;
47335;SDS011;33068;51.990;5.926;2022-11-23T10:15:39;6.97;;;1.05;;
47335;SDS011;33068;51.990;5.926;2022-11-23T10:18:20;6.05;;;1.00;;
47335;SDS011;33068;51.990;5.926;2022-11-23T10:23:33;14.13;;;1.08;;
47335;SDS011;33068;51.990;5.926;2022-11-23T10:26:13;10.70;;;1.02;;
47335;SDS011;33068;51.990;5.926;2022-11-23T10:28:42;11.07;;;1.20;;
47335;SDS011;33068;51.990;5.926;2022-11-23T10:31:14;2.88;;;1.23;;
47335;SDS011;33068;51.990;5.926;2022-11-23T10:33:52;10.00;;;1.58;;
47335;SDS011;33068;51.990;5.926;2022-11-23T10:36:23;5.15;;;1.33;;
47335;SDS011;33068;51.990;5.926;2022-11-23T10:38:51;6.93;;;1.38;;
47335;SDS011;33068;51.990;5.926;2022-11-23T10:41:22;8.43;;;0.90;;
47335;SDS011;33068;51.990;5.926;2022-11-23T10:43:51;13.90;;;1.08;;
47335;SDS011;33068;51.990;5.926;2022-11-23T10:46:37;11.77;;;1.38;;
47335;SDS011;33068;51.990;5.926;2022-11-23T10:51:52;4.53;;;0.80;;
47335;SDS011;33068;51.990;5.926;2022-11-23T10:54:24;9.90;;;0.93;;
47335;SDS011;33068;51.990;5.926;2022-11-23T10:56:56;11.05;;;1.25;;
47335;SDS011;33068;51.990;5.926;2022-11-23T10:59:31;7.13;;;0.90;;
47335;SDS011;33068;51.990;5.926;2022-11-23T11:02:09;15.68;;;1.20;;
47335;SDS011;33068;51.990;5.926;2022-11-23T11:04:42;14.25;;;1.13;;
47335;SDS011;33068;51.990;5.926;2022-11-23T11:07:17;6.75;;;0.90;;
47335;SDS011;33068;51.990;5.926;2022-11-23T11:09:49;10.55;;;1.33;;
47335;SDS011;33068;51.990;5.926;2022-11-23T11:12:17;14.70;;;1.00;;
47335;SDS011;33068;51.990;5.926;2022-11-23T11:14:54;9.77;;;0.98;;
47335;SDS011;33068;51.990;5.926;2022-11-23T11:17:27;8.98;;;1.00;;
47335;SDS011;33068;51.990;5.926;2022-11-23T11:19:56;4.95;;;0.68;;
47335;SDS011;33068;51.990;5.926;2022-11-23T11:22:25;6.35;;;1.15;;
47335;SDS011;33068;51.990;5.926;2022-11-23T11:24:54;7.78;;;0.70;;
47335;SDS011;33068;51.990;5.926;2022-11-23T11:27:21;7.20;;;0.68;;
47335;SDS011;33068;51.990;5.926;2022-11-23T11:29:50;7.47;;;0.77;;
47335;SDS011;33068;51.990;5.926;2022-11-23T11:32:20;10.48;;;1.17;;
47335;SDS011;33068;51.990;5.926;2022-11-23T11:34:57;4.45;;;1.00;;
47335;SDS011;33068;51.990;5.926;2022-11-23T11:37:29;7.45;;;1.02;;
47335;SDS011;33068;51.990;5.926;2022-11-23T11:40:02;7.10;;;0.90;;
47335;SDS011;33068;51.990;5.926;2022-11-23T11:42:35;5.43;;;0.70;;
47335;SDS011;33068;51.990;5.926;2022-11-23T11:45:11;9.27;;;0.80;;
47335;SDS011;33068;51.990;5.926;2022-11-23T11:47:44;6.75;;;0.70;;
47335;SDS011;33068;51.990;5.926;2022-11-23T11:50:17;8.32;;;1.00;;
47335;SDS011;33068;51.990;5.926;2022-11-23T11:52:49;5.88;;;0.80;;
47335;SDS011;33068;51.990;5.926;2022-11-23T11:55:22;8.50;;;0.88;;
47335;SDS011;33068;51.990;5.926;2022-11-23T11:57:54;11.55;;;1.17;;
47335;SDS011;33068;51.990;5.926;2022-11-23T12:00:27;5.60;;;0.45;;
47335;SDS011;33068;51.990;5.926;2022-11-23T12:03:02;4.38;;;0.80;;
47335;SDS011;33068;51.990;5.926;2022-11-23T12:05:38;5.70;;;0.50;;
47335;SDS011;33068;51.990;5.926;2022-11-23T12:08:12;7.65;;;0.80;;
47335;SDS011;33068;51.990;5.926;2022-11-23T12:10:43;9.13;;;0.90;;
47335;SDS011;33068;51.990;5.926;2022-11-23T12:13:14;8.90;;;0.70;;
47335;SDS011;33068;51.990;5.926;2022-11-23T12:15:44;8.63;;;0.63;;
47335;SDS011;33068;51.990;5.926;2022-11-23T12:18:17;4.85;;;0.88;;
47335;SDS011;33068;51.990;5.926;2022-11-23T12:21:11;8.38;;;0.68;;
47335;SDS011;33068;51.990;5.926;2022-11-23T12:23:47;5.03;;;0.95;;
47335;SDS011;33068;51.990;5.926;2022-11-23T12:26:23;3.70;;;0.70;;
47335;SDS011;33068;51.990;5.926;2022-11-23T12:29:04;8.40;;;0.93;;
47335;SDS011;33068;51.990;5.926;2022-11-23T12:31:44;3.53;;;0.32;;
47335;SDS011;33068;51.990;5.926;2022-11-23T12:34:17;4.53;;;0.68;;
47335;SDS011;33068;51.990;5.926;2022-11-23T12:37:06;5.20;;;0.50;;
47335;SDS011;33068;51.990;5.926;2022-11-23T12:40:08;7.43;;;1.10;;
47335;SDS011;33068;51.990;5.926;2022-11-23T12:42:56;4.38;;;0.50;;
47335;SDS011;33068;51.990;5.926;2022-11-23T12:45:38;6.47;;;0.90;;
47335;SDS011;33068;51.990;5.926;2022-11-23T12:48:25;5.82;;;0.50;;
47335;SDS011;33068;51.990;5.926;2022-11-23T12:51:06;7.55;;;0.95;;
47335;SDS011;33068;51.990;5.926;2022-11-23T12:53:46;6.40;;;0.70;;
47335;SDS011;33068;51.990;5.926;2022-11-23T12:56:24;3.67;;;0.40;;
47335;SDS011;33068;51.990;5.926;2022-11-23T12:59:08;4.30;;;0.70;;
47335;SDS011;33068;51.990;5.926;2022-11-23T13:01:37;8.30;;;0.80;;
47335;SDS011;33068;51.990;5.926;2022-11-23T13:04:12;5.78;;;0.70;;
47335;SDS011;33068;51.990;5.926;2022-11-23T13:10:08;6.68;;;0.50;;
47335;SDS011;33068;51.990;5.926;2022-11-23T13:12:49;5.28;;;0.50;;
47335;SDS011;33068;51.990;5.926;2022-11-23T13:15:37;7.43;;;0.70;;
47335;SDS011;33068;51.990;5.926;2022-11-23T13:18:17;2.65;;;0.30;;
47335;SDS011;33068;51.990;5.926;2022-11-23T13:21:06;4.00;;;0.50;;
47335;SDS011;33068;51.990;5.926;2022-11-23T13:23:43;6.28;;;0.50;;
47335;SDS011;33068;51.990;5.926;2022-11-23T13:26:12;6.93;;;0.52;;
47335;SDS011;33068;51.990;5.926;2022-11-23T13:28:43;3.28;;;0.60;;
47335;SDS011;33068;51.990;5.926;2022-11-23T13:31:24;3.75;;;0.40;;
47335;SDS011;33068;51.990;5.926;2022-11-23T13:33:53;7.47;;;0.60;;
47335;SDS011;33068;51.990;5.926;2022-11-23T13:36:34;3.22;;;0.52;;
47335;SDS011;33068;51.990;5.926;2022-11-23T13:42:23;2.67;;;0.40;;
47335;SDS011;33068;51.990;5.926;2022-11-23T13:47:39;9.95;;;0.50;;
47335;SDS011;33068;51.990;5.926;2022-11-23T13:50:07;3.47;;;0.60;;
47335;SDS011;33068;51.990;5.926;2022-11-23T13:52:46;5.57;;;0.80;;
47335;SDS011;33068;51.990;5.926;2022-11-23T13:55:17;2.13;;;0.50;;
47335;SDS011;33068;51.990;5.926;2022-11-23T14:01:00;5.78;;;0.77;;
47335;SDS011;33068;51.990;5.926;2022-11-23T14:03:44;6.68;;;0.60;;
47335;SDS011;33068;51.990;5.926;2022-11-23T14:06:26;8.38;;;0.70;;
47335;SDS011;33068;51.990;5.926;2022-11-23T14:09:02;3.35;;;0.40;;
47335;SDS011;33068;51.990;5.926;2022-11-23T14:11:36;3.28;;;0.47;;
47335;SDS011;33068;51.990;5.926;2022-11-23T14:14:13;2.33;;;0.55;;
47335;SDS011;33068;51.990;5.926;2022-11-23T14:16:55;6.45;;;0.70;;
47335;SDS011;33068;51.990;5.926;2022-11-23T14:19:37;1.25;;;0.68;;
47335;SDS011;33068;51.990;5.926;2022-11-23T14:22:12;4.28;;;0.77;;
47335;SDS011;33068;51.990;5.926;2022-11-23T14:27:32;3.42;;;0.50;;
47335;SDS011;33068;51.990;5.926;2022-11-23T14:33:15;7.63;;;0.60;;
47335;SDS011;33068;51.990;5.926;2022-11-23T14:35:52;4.78;;;0.63;;
47335;SDS011;33068;51.990;5.926;2022-11-23T14:41:32;3.40;;;0.50;;
47335;SDS011;33068;51.990;5.926;2022-11-23T14:44:01;6.00;;;0.50;;
47335;SDS011;33068;51.990;5.926;2022-11-23T14:46:29;4.50;;;0.50;;
47335;SDS011;33068;51.990;5.926;2022-11-23T14:49:03;2.50;;;0.50;;
47335;SDS011;33068;51.990;5.926;2022-11-23T14:51:32;5.22;;;0.65;;
47335;SDS011;33068;51.990;5.926;2022-11-23T14:54:00;3.22;;;0.98;;
47335;SDS011;33068;51.990;5.926;2022-11-23T14:56:34;5.70;;;0.57;;
47335;SDS011;33068;51.990;5.926;2022-11-23T14:59:04;4.72;;;0.63;;
47335;SDS011;33068;51.990;5.926;2022-11-23T15:01:35;2.65;;;0.40;;
47335;SDS011;33068;51.990;5.926;2022-11-23T15:04:07;8.98;;;0.65;;
47335;SDS011;33068;51.990;5.926;2022-11-23T15:06:38;7.45;;;0.65;;
47335;SDS011;33068;51.990;5.926;2022-11-23T15:09:11;7.18;;;0.73;;
47335;SDS011;33068;51.990;5.926;2022-11-23T15:11:44;5.05;;;0.73;;
47335;SDS011;33068;51.990;5.926;2022-11-23T15:14:16;6.40;;;0.80;;
47335;SDS011;33068;51.990;5.926;2022-11-23T15:16:45;5.70;;;0.70;;
47335;SDS011;33068;51.990;5.926;2022-11-23T15:19:18;4.55;;;0.70;;
47335;SDS011;33068;51.990;5.926;2022-11-23T15:21:51;7.03;;;0.68;;
47335;SDS011;33068;51.990;5.926;2022-11-23T15:24:19;5.78;;;0.88;;
47335;SDS011;33068;51.990;5.926;2022-11-23T15:27:02;4.57;;;0.80;;
47335;SDS011;33068;51.990;5.926;2022-11-23T15:29:31;4.35;;;0.90;;
47335;SDS011;33068;51.990;5.926;2022-11-23T15:32:18;8.35;;;0.73;;
47335;SDS011;33068;51.990;5.926;2022-11-23T15:34:49;7.70;;;1.17;;
47335;SDS011;33068;51.990;5.926;2022-11-23T15:37:19;1.67;;;0.73;;
47335;SDS011;33068;51.990;5.926;2022-11-23T15:39:53;4.55;;;1.20;;